createdAt,value
2017-01-20T00:00:35.214Z,18.67
2017-01-20T00:01:43.894Z,18.75
2017-01-20T00:02:52.583Z,18.78
2017-01-20T00:04:01.941Z,18.84
2017-01-20T00:05:10.624Z,18.78
2017-01-20T00:06:19.703Z,18.78
2017-01-20T00:07:29.166Z,18.8
2017-01-20T00:08:39.037Z,18.82
2017-01-20T00:09:47.739Z,18.8
2017-01-20T00:10:56.443Z,18.8
2017-01-20T00:12:05.513Z,18.78
2017-01-20T00:13:14.652Z,18.85
2017-01-20T00:14:23.326Z,18.84
2017-01-20T00:15:32.387Z,18.81
2017-01-20T00:16:41.053Z,18.85
2017-01-20T00:17:49.749Z,18.85
2017-01-20T00:18:59.201Z,18.87
2017-01-20T00:20:08.263Z,18.87
2017-01-20T00:21:17.731Z,18.82
2017-01-20T00:22:26.477Z,18.85
2017-01-20T00:23:35.938Z,18.84
2017-01-20T00:24:44.999Z,18.84
2017-01-20T00:25:53.692Z,18.9
2017-01-20T00:27:02.375Z,18.87
2017-01-20T00:28:11.839Z,18.82
2017-01-20T00:29:20.903Z,18.88
2017-01-20T00:30:29.971Z,18.84
2017-01-20T00:31:38.662Z,18.81
2017-01-20T00:32:47.734Z,18.84
2017-01-20T00:33:56.799Z,18.84
2017-01-20T00:35:06.253Z,18.84
2017-01-20T00:36:14.929Z,18.82
2017-01-20T00:37:24.389Z,18.87
2017-01-20T00:38:34.238Z,18.82
2017-01-20T00:39:42.912Z,18.8
2017-01-20T00:40:51.971Z,18.94
2017-01-20T00:42:01.453Z,18.85
2017-01-20T00:43:10.131Z,18.82
2017-01-20T00:44:19.190Z,18.88
2017-01-20T00:45:28.658Z,18.87
2017-01-20T00:46:37.348Z,18.82
2017-01-20T00:47:46.031Z,18.82
2017-01-20T00:48:55.503Z,18.87
2017-01-20T00:50:04.608Z,18.88
2017-01-20T00:51:13.299Z,18.87
2017-01-20T00:52:21.971Z,18.88
2017-01-20T00:53:31.052Z,18.87
2017-01-20T00:54:40.516Z,18.91
2017-01-20T00:55:49.609Z,18.81
2017-01-20T00:56:59.076Z,18.84
2017-01-20T00:58:08.156Z,18.9
2017-01-20T00:59:16.854Z,18.84
2017-01-20T01:00:25.937Z,18.82
2017-01-20T01:01:35.395Z,18.81
2017-01-20T01:02:44.883Z,18.75
2017-01-20T01:03:53.585Z,18.8
2017-01-20T01:05:02.681Z,18.75
2017-01-20T01:06:12.140Z,18.78
2017-01-20T01:07:20.835Z,18.78
2017-01-20T01:08:29.919Z,18.78
2017-01-20T01:09:39.369Z,18.76
2017-01-20T01:10:48.833Z,18.8
2017-01-20T01:11:57.926Z,18.81
2017-01-20T01:13:07.389Z,18.75
2017-01-20T01:14:16.453Z,18.82
2017-01-20T01:15:25.905Z,18.78
2017-01-20T01:16:34.998Z,18.78
2017-01-20T01:17:43.671Z,18.8
2017-01-20T01:18:52.346Z,18.8
2017-01-20T01:20:01.418Z,18.73
2017-01-20T01:21:10.491Z,18.7
2017-01-20T01:22:19.613Z,18.78
2017-01-20T01:23:28.690Z,18.69
2017-01-20T01:24:38.217Z,18.67
2017-01-20T01:25:48.070Z,18.7
2017-01-20T01:26:56.750Z,18.76
2017-01-20T01:28:05.816Z,18.73
2017-01-20T01:29:14.877Z,18.7
2017-01-20T01:30:23.589Z,18.72
2017-01-20T01:31:33.064Z,18.72
2017-01-20T01:32:42.568Z,18.73
2017-01-20T01:33:51.635Z,18.75
2017-01-20T01:35:00.705Z,18.75
2017-01-20T01:36:09.787Z,18.7
2017-01-20T01:37:19.649Z,18.66
2017-01-20T01:38:28.712Z,18.69
2017-01-20T01:39:37.401Z,18.78
2017-01-20T01:40:46.085Z,18.66
2017-01-20T01:41:55.533Z,18.66
2017-01-20T01:43:04.606Z,18.7
2017-01-20T01:44:14.062Z,18.72
2017-01-20T01:45:22.757Z,18.72
2017-01-20T01:46:32.616Z,18.73
2017-01-20T01:47:41.291Z,18.73
2017-01-20T01:48:50.371Z,18.7
2017-01-20T01:49:59.065Z,18.7
2017-01-20T01:51:08.165Z,18.72
2017-01-20T01:52:17.248Z,18.69
2017-01-20T01:53:26.339Z,18.69
2017-01-20T01:54:35.417Z,18.72
2017-01-20T01:55:44.486Z,18.7
2017-01-20T01:56:53.174Z,18.67
2017-01-20T01:58:02.636Z,18.72
2017-01-20T01:59:11.306Z,18.69
2017-01-20T02:00:20.781Z,18.66
2017-01-20T02:01:29.842Z,18.75
2017-01-20T02:02:39.313Z,18.72
2017-01-20T02:03:49.842Z,18.67
2017-01-20T02:04:58.515Z,18.73
2017-01-20T02:06:07.618Z,18.69
2017-01-20T02:07:16.696Z,18.67
2017-01-20T02:08:25.775Z,18.78
2017-01-20T02:09:34.846Z,18.75
2017-01-20T02:10:44.303Z,18.7
2017-01-20T02:11:52.991Z,18.72
2017-01-20T02:13:02.840Z,18.69
2017-01-20T02:14:11.906Z,18.72
2017-01-20T02:15:21.374Z,18.67
2017-01-20T02:16:30.838Z,18.66
2017-01-20T02:17:39.904Z,18.7
2017-01-20T02:18:48.594Z,18.69
2017-01-20T02:19:57.284Z,18.69
2017-01-20T02:21:06.353Z,18.7
2017-01-20T02:22:15.027Z,18.63
2017-01-20T02:23:24.480Z,18.76
2017-01-20T02:24:33.939Z,18.72
2017-01-20T02:25:43.002Z,18.8
2017-01-20T02:26:52.464Z,18.72
2017-01-20T02:28:01.142Z,18.78
2017-01-20T02:29:10.205Z,18.63
2017-01-20T02:30:18.893Z,18.58
2017-01-20T02:31:27.568Z,18.69
2017-01-20T02:32:37.413Z,18.55
2017-01-20T02:33:46.476Z,18.6
2017-01-20T02:34:55.983Z,18.62
2017-01-20T02:36:05.435Z,18.66
2017-01-20T02:37:14.899Z,18.69
2017-01-20T02:38:23.965Z,18.69
2017-01-20T02:39:32.654Z,18.57
2017-01-20T02:40:42.106Z,18.65
2017-01-20T02:41:50.796Z,18.65
2017-01-20T02:42:59.943Z,18.57
2017-01-20T02:44:09.393Z,18.52
2017-01-20T02:45:18.458Z,18.54
2017-01-20T02:46:27.147Z,18.58
2017-01-20T02:47:35.821Z,18.52
2017-01-20T02:48:45.278Z,18.55
2017-01-20T02:49:54.749Z,18.55
2017-01-20T02:51:04.216Z,18.48
2017-01-20T02:52:13.677Z,18.51
2017-01-20T02:53:22.796Z,18.51
2017-01-20T02:54:31.475Z,18.52
2017-01-20T02:55:40.931Z,18.5
2017-01-20T02:56:50.383Z,18.48
2017-01-20T02:58:00.635Z,18.52
2017-01-20T02:59:09.708Z,18.51
2017-01-20T03:00:18.778Z,18.54
2017-01-20T03:01:27.845Z,18.41
2017-01-20T03:02:37.310Z,18.54
2017-01-20T03:03:46.380Z,18.54
2017-01-20T03:04:55.865Z,18.5
2017-01-20T03:06:04.937Z,18.52
2017-01-20T03:07:13.630Z,18.58
2017-01-20T03:08:23.080Z,18.54
2017-01-20T03:09:32.950Z,18.57
2017-01-20T03:10:42.018Z,18.67
2017-01-20T03:11:51.864Z,18.65
2017-01-20T03:13:00.538Z,18.62
2017-01-20T03:14:09.607Z,18.76
2017-01-20T03:15:18.300Z,18.65
2017-01-20T03:16:27.763Z,18.69
2017-01-20T03:17:37.273Z,18.72
2017-01-20T03:18:46.341Z,18.76
2017-01-20T03:19:55.406Z,18.73
2017-01-20T03:21:05.250Z,18.81
2017-01-20T03:22:14.317Z,18.82
2017-01-20T03:23:23.385Z,18.84
2017-01-20T03:24:32.467Z,18.84
2017-01-20T03:25:41.216Z,18.8
2017-01-20T03:26:50.673Z,18.91
2017-01-20T03:27:59.732Z,18.91
2017-01-20T03:29:08.792Z,18.9
2017-01-20T03:30:18.235Z,18.87
2017-01-20T03:31:27.691Z,18.91
2017-01-20T03:32:37.145Z,18.99
2017-01-20T03:33:45.823Z,18.92
2017-01-20T03:34:54.901Z,18.95
2017-01-20T03:36:03.630Z,18.95
2017-01-20T03:37:12.726Z,18.99
2017-01-20T03:38:22.183Z,18.94
2017-01-20T03:39:30.855Z,18.91
2017-01-20T03:40:40.304Z,18.94
2017-01-20T03:41:49.386Z,18.87
2017-01-20T03:42:58.105Z,19
2017-01-20T03:44:06.800Z,18.95
2017-01-20T03:45:15.488Z,18.95
2017-01-20T03:46:25.728Z,18.99
2017-01-20T03:47:34.821Z,18.95
2017-01-20T03:48:44.661Z,18.9
2017-01-20T03:49:53.719Z,18.91
2017-01-20T03:51:02.812Z,18.91
2017-01-20T03:52:11.490Z,18.95
2017-01-20T03:53:20.555Z,18.94
2017-01-20T03:54:30.014Z,18.95
2017-01-20T03:55:39.088Z,18.88
2017-01-20T03:56:48.558Z,18.94
2017-01-20T03:57:58.053Z,18.95
2017-01-20T03:59:06.732Z,18.91
2017-01-20T04:00:15.402Z,18.98
2017-01-20T04:01:24.085Z,18.82
2017-01-20T04:02:32.780Z,18.8
2017-01-20T04:03:41.841Z,18.85
2017-01-20T04:04:51.298Z,18.9
2017-01-20T04:06:00.372Z,18.8
2017-01-20T04:07:09.831Z,18.84
2017-01-20T04:08:18.909Z,18.81
2017-01-20T04:09:27.968Z,18.85
2017-01-20T04:10:37.038Z,18.88
2017-01-20T04:11:45.748Z,18.85
2017-01-20T04:12:55.210Z,18.82
2017-01-20T04:14:04.268Z,18.8
2017-01-20T04:15:14.140Z,18.76
2017-01-20T04:16:22.829Z,18.75
2017-01-20T04:17:31.896Z,18.78
2017-01-20T04:18:40.573Z,18.81
2017-01-20T04:19:49.246Z,18.78
2017-01-20T04:20:57.927Z,18.82
2017-01-20T04:22:07.006Z,18.73
2017-01-20T04:23:16.508Z,18.73
2017-01-20T04:24:25.184Z,18.73
2017-01-20T04:25:33.857Z,18.72
2017-01-20T04:26:42.546Z,18.67
2017-01-20T04:27:51.626Z,18.65
2017-01-20T04:29:01.369Z,18.7
2017-01-20T04:30:11.226Z,18.65
2017-01-20T04:31:20.709Z,18.65
2017-01-20T04:32:30.155Z,18.67
2017-01-20T04:33:39.216Z,18.75
2017-01-20T04:34:48.280Z,18.7
2017-01-20T04:35:57.373Z,18.65
2017-01-20T04:37:06.465Z,18.65
2017-01-20T04:38:15.535Z,18.66
2017-01-20T04:39:24.598Z,18.62
2017-01-20T04:40:33.671Z,18.58
2017-01-20T04:41:42.351Z,18.62
2017-01-20T04:42:51.416Z,18.67
2017-01-20T04:44:00.906Z,18.62
2017-01-20T04:45:09.603Z,18.7
2017-01-20T04:46:19.064Z,18.67
2017-01-20T04:47:28.586Z,18.65
2017-01-20T04:48:38.064Z,18.6
2017-01-20T04:49:47.123Z,18.62
2017-01-20T04:50:56.195Z,18.62
2017-01-20T04:52:05.710Z,18.57
2017-01-20T04:53:14.784Z,18.6
2017-01-20T04:54:23.455Z,18.73
2017-01-20T04:55:32.135Z,18.69
2017-01-20T04:56:41.206Z,18.65
2017-01-20T04:57:50.266Z,18.78
2017-01-20T04:58:58.960Z,18.6
2017-01-20T05:00:07.665Z,18.7
2017-01-20T05:01:16.740Z,18.69
2017-01-20T05:02:25.806Z,18.69
2017-01-20T05:03:34.889Z,18.69
2017-01-20T05:04:43.960Z,18.7
2017-01-20T05:05:52.646Z,18.67
2017-01-20T05:07:01.719Z,18.72
2017-01-20T05:08:11.188Z,18.73
2017-01-20T05:09:20.414Z,18.72
2017-01-20T05:10:29.087Z,18.72
2017-01-20T05:11:38.159Z,18.81
2017-01-20T05:12:46.835Z,18.8
2017-01-20T05:13:55.898Z,18.78
2017-01-20T05:15:05.022Z,18.81
2017-01-20T05:16:14.491Z,18.84
2017-01-20T05:17:23.555Z,18.81
2017-01-20T05:18:33.411Z,18.82
2017-01-20T05:19:42.532Z,18.8
2017-01-20T05:20:51.602Z,18.78
2017-01-20T05:22:01.017Z,18.78
2017-01-20T05:23:09.744Z,18.84
2017-01-20T05:24:18.419Z,18.81
2017-01-20T05:25:28.270Z,18.84
2017-01-20T05:26:36.949Z,18.73
2017-01-20T05:27:45.635Z,18.81
2017-01-20T05:28:55.115Z,18.8
2017-01-20T05:30:03.792Z,18.8
2017-01-20T05:31:14.072Z,18.82
2017-01-20T05:32:23.140Z,18.85
2017-01-20T05:33:31.811Z,18.84
2017-01-20T05:34:41.286Z,18.84
2017-01-20T05:35:50.787Z,18.87
2017-01-20T05:36:59.462Z,18.82
2017-01-20T05:38:08.137Z,18.82
2017-01-20T05:39:17.201Z,18.98
2017-01-20T05:40:26.273Z,18.94
2017-01-20T05:41:34.966Z,18.98
2017-01-20T05:42:44.413Z,18.98
2017-01-20T05:43:53.087Z,19.02
2017-01-20T05:45:02.155Z,19.1
2017-01-20T05:46:10.840Z,19.11
2017-01-20T05:47:19.525Z,19.14
2017-01-20T05:48:28.588Z,19.21
2017-01-20T05:49:38.060Z,19.31
2017-01-20T05:50:46.733Z,19.28
2017-01-20T05:51:55.420Z,19.36
2017-01-20T05:53:04.108Z,19.39
2017-01-20T05:54:13.194Z,19.39
2017-01-20T05:55:22.653Z,19.54
2017-01-20T05:56:32.108Z,19.51
2017-01-20T05:57:41.171Z,19.55
2017-01-20T05:58:49.858Z,19.56
2017-01-20T05:59:58.923Z,19.56
2017-01-20T06:01:08.474Z,19.69
2017-01-20T06:02:17.297Z,19.66
2017-01-20T06:03:25.966Z,19.69
2017-01-20T06:04:35.071Z,19.76
2017-01-20T06:05:44.148Z,19.77
2017-01-20T06:06:53.624Z,19.87
2017-01-20T06:08:02.315Z,19.84
2017-01-20T06:09:11.777Z,19.8
2017-01-20T06:10:21.634Z,19.84
2017-01-20T06:11:30.308Z,19.96
2017-01-20T06:12:39.369Z,19.94
2017-01-20T06:13:48.054Z,19.99
2017-01-20T06:14:57.536Z,19.99
2017-01-20T06:16:06.991Z,20.05
2017-01-20T06:17:16.050Z,20.13
2017-01-20T06:18:25.506Z,20.11
2017-01-20T06:19:34.591Z,20.21
2017-01-20T06:20:44.311Z,20.24
2017-01-20T06:21:53.416Z,20.31
2017-01-20T06:23:02.878Z,20.36
2017-01-20T06:24:12.336Z,20.41
2017-01-20T06:25:21.001Z,20.36
2017-01-20T06:26:30.839Z,20.36
2017-01-20T06:27:39.908Z,20.5
2017-01-20T06:28:48.588Z,20.52
2017-01-20T06:29:57.661Z,20.52
2017-01-20T06:31:07.509Z,20.62
2017-01-20T06:32:16.564Z,20.62
2017-01-20T06:33:25.645Z,20.7
2017-01-20T06:34:35.889Z,20.7
2017-01-20T06:35:44.963Z,20.69
2017-01-20T06:36:54.054Z,20.72
2017-01-20T06:38:02.735Z,20.77
2017-01-20T06:39:11.833Z,20.72
2017-01-20T06:40:20.571Z,20.77
2017-01-20T06:41:29.660Z,20.82
2017-01-20T06:42:39.131Z,20.82
2017-01-20T06:43:47.806Z,20.84
2017-01-20T06:44:57.268Z,20.82
2017-01-20T06:46:06.333Z,20.97
2017-01-20T06:47:15.007Z,20.99
2017-01-20T06:48:24.077Z,20.91
2017-01-20T06:49:33.153Z,20.98
2017-01-20T06:50:42.999Z,20.97
2017-01-20T06:51:51.692Z,20.94
2017-01-20T06:53:00.764Z,20.97
2017-01-20T06:54:09.841Z,21.01
2017-01-20T06:55:18.516Z,20.98
2017-01-20T06:56:27.231Z,20.94
2017-01-20T06:57:35.917Z,20.89
2017-01-20T06:58:44.921Z,20.89
2017-01-20T06:59:54.389Z,20.94
2017-01-20T07:01:03.483Z,20.84
2017-01-20T07:02:12.951Z,20.8
2017-01-20T07:03:22.788Z,20.88
2017-01-20T07:04:31.859Z,20.79
2017-01-20T07:05:41.703Z,20.76
2017-01-20T07:06:50.794Z,20.82
2017-01-20T07:07:59.530Z,20.79
2017-01-20T07:09:08.599Z,20.77
2017-01-20T07:10:18.068Z,20.7
2017-01-20T07:11:26.774Z,20.69
2017-01-20T07:12:36.233Z,20.69
2017-01-20T07:13:45.691Z,20.72
2017-01-20T07:14:54.780Z,20.7
2017-01-20T07:16:04.237Z,20.67
2017-01-20T07:17:13.708Z,20.64
2017-01-20T07:18:22.375Z,20.57
2017-01-20T07:19:31.449Z,20.59
2017-01-20T07:20:40.912Z,20.58
2017-01-20T07:21:50.033Z,20.48
2017-01-20T07:22:59.106Z,20.39
2017-01-20T07:24:08.562Z,20.54
2017-01-20T07:25:18.408Z,20.42
2017-01-20T07:26:27.108Z,20.43
2017-01-20T07:27:36.570Z,20.38
2017-01-20T07:28:46.104Z,20.42
2017-01-20T07:29:54.792Z,20.31
2017-01-20T07:31:03.883Z,20.26
2017-01-20T07:32:13.016Z,20.16
2017-01-20T07:33:22.512Z,20.17
2017-01-20T07:34:31.199Z,20.17
2017-01-20T07:35:40.656Z,20.1
2017-01-20T07:36:49.748Z,20.13
2017-01-20T07:37:58.426Z,20.06
2017-01-20T07:39:07.520Z,19.99
2017-01-20T07:40:16.598Z,20.06
2017-01-20T07:41:26.053Z,19.99
2017-01-20T07:42:35.133Z,20.01
2017-01-20T07:43:44.216Z,19.99
2017-01-20T07:44:54.066Z,19.81
2017-01-20T07:46:03.138Z,19.88
2017-01-20T07:47:11.832Z,19.86
2017-01-20T07:48:20.895Z,19.8
2017-01-20T07:49:30.361Z,19.71
2017-01-20T07:50:39.848Z,19.73
2017-01-20T07:51:48.926Z,19.71
2017-01-20T07:52:58.380Z,19.65
2017-01-20T07:54:07.848Z,19.66
2017-01-20T07:55:17.322Z,19.69
2017-01-20T07:56:26.404Z,19.58
2017-01-20T07:57:35.468Z,19.61
2017-01-20T07:58:44.148Z,19.59
2017-01-20T07:59:53.625Z,19.59
2017-01-20T08:01:02.757Z,19.56
2017-01-20T08:02:11.462Z,19.58
2017-01-20T08:03:20.567Z,19.55
2017-01-20T08:04:29.661Z,19.54
2017-01-20T08:05:38.370Z,19.47
2017-01-20T08:06:47.499Z,19.54
2017-01-20T08:07:56.580Z,19.4
2017-01-20T08:09:05.272Z,19.46
2017-01-20T08:10:14.343Z,19.44
2017-01-20T08:11:23.016Z,19.48
2017-01-20T08:12:32.484Z,19.48
2017-01-20T08:13:41.549Z,19.33
2017-01-20T08:14:51.034Z,19.32
2017-01-20T08:16:00.110Z,19.39
2017-01-20T08:17:09.202Z,19.37
2017-01-20T08:18:18.656Z,19.36
2017-01-20T08:19:27.731Z,19.31
2017-01-20T08:20:36.814Z,19.26
2017-01-20T08:21:45.490Z,19.29
2017-01-20T08:22:54.969Z,19.22
2017-01-20T08:24:04.455Z,19.31
2017-01-20T08:25:13.138Z,19.25
2017-01-20T08:26:22.593Z,19.26
2017-01-20T08:27:32.080Z,19.28
2017-01-20T08:28:41.936Z,19.11
2017-01-20T08:29:51.027Z,19.22
2017-01-20T08:31:00.101Z,19.19
2017-01-20T08:32:09.571Z,19.22
2017-01-20T08:33:18.642Z,19.11
2017-01-20T08:34:27.365Z,19.11
2017-01-20T08:35:36.888Z,19.13
2017-01-20T08:36:45.977Z,19.14
2017-01-20T08:37:55.051Z,19.08
2017-01-20T08:39:04.530Z,19.13
2017-01-20T08:40:14.775Z,19.07
2017-01-20T08:41:23.865Z,19.1
2017-01-20T08:42:32.547Z,19.08
2017-01-20T08:43:41.606Z,19.07
2017-01-20T08:44:50.689Z,18.98
2017-01-20T08:45:59.367Z,19.04
2017-01-20T08:47:08.054Z,18.98
2017-01-20T08:48:17.130Z,19
2017-01-20T08:49:25.825Z,19.04
2017-01-20T08:50:35.299Z,19
2017-01-20T08:51:43.981Z,18.99
2017-01-20T08:52:53.454Z,18.95
2017-01-20T08:54:02.139Z,18.98
2017-01-20T08:55:11.597Z,18.92
2017-01-20T08:56:21.058Z,18.98
2017-01-20T08:57:29.749Z,18.95
2017-01-20T08:58:39.213Z,18.95
2017-01-20T08:59:47.917Z,18.98
2017-01-20T09:00:57.380Z,18.95
2017-01-20T09:02:06.449Z,18.9
2017-01-20T09:03:15.149Z,18.95
2017-01-20T09:04:24.632Z,18.94
2017-01-20T09:05:33.331Z,18.94
2017-01-20T09:06:42.789Z,18.84
2017-01-20T09:07:51.863Z,18.84
2017-01-20T09:09:01.334Z,18.91
2017-01-20T09:10:10.082Z,18.91
2017-01-20T09:11:18.781Z,18.88
2017-01-20T09:12:27.880Z,18.94
2017-01-20T09:13:36.944Z,18.92
2017-01-20T09:14:45.629Z,18.88
2017-01-20T09:15:54.709Z,18.88
2017-01-20T09:17:04.166Z,18.84
2017-01-20T09:18:14.020Z,18.81
2017-01-20T09:19:23.474Z,18.8
2017-01-20T09:20:32.552Z,18.87
2017-01-20T09:21:41.618Z,18.81
2017-01-20T09:22:51.090Z,18.87
2017-01-20T09:24:00.171Z,18.88
2017-01-20T09:25:09.247Z,18.85
2017-01-20T09:26:19.092Z,18.84
2017-01-20T09:27:28.165Z,18.88
2017-01-20T09:28:37.619Z,18.87
2017-01-20T09:29:46.322Z,18.78
2017-01-20T09:30:55.789Z,18.82
2017-01-20T09:32:04.468Z,18.87
2017-01-20T09:33:13.953Z,18.85
2017-01-20T09:34:23.839Z,18.87
2017-01-20T09:35:32.913Z,18.78
2017-01-20T09:36:41.588Z,18.75
2017-01-20T09:37:50.268Z,18.8
2017-01-20T09:38:59.729Z,18.84
2017-01-20T09:40:08.817Z,18.75
2017-01-20T09:41:18.266Z,18.75
2017-01-20T09:42:27.724Z,18.81
2017-01-20T09:43:36.792Z,18.75
2017-01-20T09:44:45.484Z,18.81
2017-01-20T09:45:54.175Z,18.76
2017-01-20T09:47:03.257Z,18.75
2017-01-20T09:48:12.346Z,18.76
2017-01-20T09:49:21.426Z,18.76
2017-01-20T09:50:30.495Z,18.8
2017-01-20T09:51:40.345Z,18.82
2017-01-20T09:52:49.811Z,18.78
2017-01-20T09:53:58.487Z,18.82
2017-01-20T09:55:07.949Z,18.82
2017-01-20T09:56:17.406Z,18.78
2017-01-20T09:57:26.880Z,18.78
2017-01-20T09:58:35.950Z,18.78
2017-01-20T09:59:44.667Z,18.73
2017-01-20T10:00:54.518Z,18.73
2017-01-20T10:02:03.599Z,18.78
2017-01-20T10:03:12.289Z,18.78
2017-01-20T10:04:21.366Z,18.8
2017-01-20T10:05:30.433Z,18.81
2017-01-20T10:06:39.507Z,18.81
2017-01-20T10:07:48.571Z,18.72
2017-01-20T10:08:57.267Z,18.69
2017-01-20T10:10:06.736Z,18.75
2017-01-20T10:11:16.218Z,18.75
2017-01-20T10:12:25.320Z,18.7
2017-01-20T10:13:34.013Z,18.67
2017-01-20T10:14:43.119Z,18.73
2017-01-20T10:15:52.212Z,18.69
2017-01-20T10:17:00.893Z,18.75
2017-01-20T10:18:09.960Z,18.72
2017-01-20T10:19:18.630Z,18.72
2017-01-20T10:20:27.707Z,18.73
2017-01-20T10:21:37.164Z,18.69
2017-01-20T10:22:46.237Z,18.7
2017-01-20T10:23:55.703Z,18.69
2017-01-20T10:25:05.166Z,18.69
2017-01-20T10:26:14.620Z,18.73
2017-01-20T10:27:24.085Z,18.7
2017-01-20T10:28:32.777Z,18.7
2017-01-20T10:29:41.867Z,18.72
2017-01-20T10:30:50.926Z,18.7
2017-01-20T10:31:59.990Z,18.73
2017-01-20T10:33:09.068Z,18.75
2017-01-20T10:34:18.137Z,18.73
2017-01-20T10:35:27.603Z,18.73
2017-01-20T10:36:36.666Z,18.73
2017-01-20T10:37:45.722Z,18.73
2017-01-20T10:38:55.230Z,18.7
2017-01-20T10:40:04.601Z,18.73
2017-01-20T10:41:13.286Z,18.73
2017-01-20T10:42:22.737Z,18.73
2017-01-20T10:43:31.808Z,18.72
2017-01-20T10:44:41.675Z,18.7
2017-01-20T10:45:51.130Z,18.72
2017-01-20T10:47:00.405Z,18.73
2017-01-20T10:48:09.498Z,18.73
2017-01-20T10:49:18.583Z,18.73
2017-01-20T10:50:27.653Z,18.7
2017-01-20T10:51:36.353Z,18.73
2017-01-20T10:52:45.420Z,18.72
2017-01-20T10:53:54.499Z,18.73
2017-01-20T10:55:03.573Z,18.75
2017-01-20T10:56:12.254Z,18.75
2017-01-20T10:57:22.098Z,18.67
2017-01-20T10:58:31.185Z,18.7
2017-01-20T10:59:40.647Z,18.72
2017-01-20T11:00:49.727Z,18.75
2017-01-20T11:01:59.206Z,18.76
2017-01-20T11:03:07.913Z,18.69
2017-01-20T11:04:17.754Z,18.73
2017-01-20T11:05:26.447Z,18.75
2017-01-20T11:06:36.309Z,18.7
2017-01-20T11:07:45.782Z,18.78
2017-01-20T11:08:55.262Z,18.81
2017-01-20T11:10:04.335Z,18.81
2017-01-20T11:11:13.795Z,18.76
2017-01-20T11:12:22.493Z,18.78
2017-01-20T11:13:32.035Z,18.78
2017-01-20T11:14:41.111Z,18.78
2017-01-20T11:15:50.190Z,18.8
2017-01-20T11:16:59.275Z,18.73
2017-01-20T11:18:09.123Z,18.72
2017-01-20T11:19:18.208Z,18.78
2017-01-20T11:20:27.705Z,18.78
2017-01-20T11:21:36.393Z,18.78
2017-01-20T11:22:45.082Z,18.84
2017-01-20T11:23:54.177Z,18.8
2017-01-20T11:25:03.260Z,18.8
2017-01-20T11:26:12.722Z,18.75
2017-01-20T11:27:21.401Z,18.82
2017-01-20T11:28:30.849Z,18.88
2017-01-20T11:29:39.906Z,18.78
2017-01-20T11:30:49.752Z,18.76
2017-01-20T11:31:59.222Z,18.84
2017-01-20T11:33:08.306Z,18.76
2017-01-20T11:34:17.385Z,18.82
2017-01-20T11:35:26.453Z,18.76
2017-01-20T11:36:35.518Z,18.78
2017-01-20T11:37:44.968Z,18.78
2017-01-20T11:38:53.641Z,18.78
2017-01-20T11:40:02.714Z,18.85
2017-01-20T11:41:11.784Z,18.76
2017-01-20T11:42:21.261Z,18.8
2017-01-20T11:43:30.334Z,18.78
2017-01-20T11:44:39.020Z,18.84
2017-01-20T11:45:48.486Z,18.78
2017-01-20T11:46:57.159Z,18.76
2017-01-20T11:48:05.838Z,18.76
2017-01-20T11:49:15.301Z,18.8
2017-01-20T11:50:23.988Z,18.81
2017-01-20T11:51:33.084Z,18.8
2017-01-20T11:52:42.186Z,18.76
2017-01-20T11:53:51.287Z,18.81
2017-01-20T11:55:00.365Z,18.76
2017-01-20T11:56:10.218Z,18.73
2017-01-20T11:57:19.670Z,18.81
2017-01-20T11:58:29.124Z,18.8
2017-01-20T11:59:38.203Z,18.82
2017-01-20T12:00:46.913Z,18.76
2017-01-20T12:01:55.584Z,18.8
2017-01-20T12:03:04.275Z,18.81
2017-01-20T12:04:13.358Z,18.78
2017-01-20T12:05:22.430Z,18.72
2017-01-20T12:06:31.882Z,18.8
2017-01-20T12:07:40.562Z,18.72
2017-01-20T12:08:49.656Z,18.7
2017-01-20T12:09:58.736Z,18.72
2017-01-20T12:11:07.810Z,18.75
2017-01-20T12:12:16.501Z,18.72
2017-01-20T12:13:25.580Z,18.72
2017-01-20T12:14:35.063Z,18.69
2017-01-20T12:15:43.742Z,18.76
2017-01-20T12:16:52.864Z,18.72
2017-01-20T12:18:01.551Z,18.84
2017-01-20T12:19:11.004Z,18.7
2017-01-20T12:20:19.684Z,18.8
2017-01-20T12:21:28.359Z,18.73
2017-01-20T12:22:37.847Z,18.76
2017-01-20T12:23:46.913Z,18.7
2017-01-20T12:24:56.778Z,18.67
2017-01-20T12:26:06.232Z,18.78
2017-01-20T12:27:14.960Z,18.73
2017-01-20T12:28:23.649Z,18.72
2017-01-20T12:29:32.752Z,18.73
2017-01-20T12:30:42.214Z,18.69
2017-01-20T12:31:51.307Z,18.8
2017-01-20T12:33:01.155Z,18.78
2017-01-20T12:34:10.222Z,18.78
2017-01-20T12:35:19.301Z,18.72
2017-01-20T12:36:27.987Z,18.7
2017-01-20T12:37:36.685Z,18.72
2017-01-20T12:38:45.419Z,18.75
2017-01-20T12:39:54.488Z,18.81
2017-01-20T12:41:03.561Z,18.73
2017-01-20T12:42:12.243Z,18.7
2017-01-20T12:43:21.723Z,18.72
2017-01-20T12:44:30.802Z,18.69
2017-01-20T12:45:40.270Z,18.67
2017-01-20T12:46:49.733Z,18.78
2017-01-20T12:47:58.425Z,18.72
2017-01-20T12:49:07.122Z,18.75
2017-01-20T12:50:16.589Z,18.73
2017-01-20T12:51:25.267Z,18.72
2017-01-20T12:52:34.340Z,18.7
2017-01-20T12:53:43.801Z,18.72
2017-01-20T12:54:52.512Z,18.7
2017-01-20T12:56:01.976Z,18.8
2017-01-20T12:57:11.249Z,18.69
2017-01-20T12:58:20.569Z,18.72
2017-01-20T12:59:29.258Z,18.73
2017-01-20T13:00:38.715Z,18.72
2017-01-20T13:01:47.401Z,18.69
2017-01-20T13:02:56.487Z,18.7
2017-01-20T13:04:06.244Z,18.67
2017-01-20T13:05:15.334Z,18.72
2017-01-20T13:06:24.799Z,18.67
2017-01-20T13:07:34.649Z,18.7
2017-01-20T13:08:43.789Z,18.73
2017-01-20T13:09:52.852Z,18.69
2017-01-20T13:11:01.906Z,18.7
2017-01-20T13:12:11.359Z,18.72
2017-01-20T13:13:21.596Z,18.67
2017-01-20T13:14:30.274Z,18.7
2017-01-20T13:15:40.147Z,18.66
2017-01-20T13:16:49.641Z,18.73
2017-01-20T13:17:58.722Z,18.67
2017-01-20T13:19:08.187Z,18.7
2017-01-20T13:20:17.264Z,18.72
2017-01-20T13:21:26.340Z,18.78
2017-01-20T13:22:36.214Z,18.69
2017-01-20T13:23:44.914Z,18.76
2017-01-20T13:24:53.992Z,18.78
2017-01-20T13:26:03.073Z,18.8
2017-01-20T13:27:12.169Z,18.81
2017-01-20T13:28:21.253Z,18.67
2017-01-20T13:29:30.944Z,18.76
2017-01-20T13:30:40.010Z,18.76
2017-01-20T13:31:48.685Z,18.78
2017-01-20T13:32:57.763Z,18.72
2017-01-20T13:34:07.629Z,18.81
2017-01-20T13:35:16.340Z,18.75
2017-01-20T13:36:25.841Z,18.82
2017-01-20T13:37:34.950Z,18.81
2017-01-20T13:38:43.621Z,18.8
2017-01-20T13:39:52.690Z,18.75
2017-01-20T13:41:01.373Z,18.81
2017-01-20T13:42:10.433Z,18.8
2017-01-20T13:43:19.141Z,18.75
2017-01-20T13:44:27.814Z,18.8
2017-01-20T13:45:36.885Z,18.72
2017-01-20T13:46:45.956Z,18.75
2017-01-20T13:47:55.033Z,18.8
2017-01-20T13:49:04.147Z,18.78
2017-01-20T13:50:13.207Z,18.73
2017-01-20T13:51:21.893Z,18.81
2017-01-20T13:52:30.580Z,18.78
2017-01-20T13:53:39.277Z,18.81
2017-01-20T13:54:48.357Z,18.8
2017-01-20T13:55:57.446Z,18.76
2017-01-20T13:57:06.519Z,18.8
2017-01-20T13:58:15.591Z,18.81
2017-01-20T13:59:24.801Z,18.8
2017-01-20T14:00:33.479Z,18.81
2017-01-20T14:01:42.546Z,18.87
2017-01-20T14:02:51.619Z,18.85
2017-01-20T14:04:00.298Z,18.85
2017-01-20T14:05:10.319Z,18.88
2017-01-20T14:06:19.011Z,18.82
2017-01-20T14:07:27.696Z,18.81
2017-01-20T14:08:36.766Z,18.85
2017-01-20T14:09:45.442Z,18.87
2017-01-20T14:10:54.507Z,18.82
2017-01-20T14:12:03.577Z,18.88
2017-01-20T14:13:12.637Z,18.81
2017-01-20T14:14:22.125Z,18.73
2017-01-20T14:15:31.974Z,18.81
2017-01-20T14:16:40.762Z,18.81
2017-01-20T14:17:50.223Z,18.81
2017-01-20T14:18:58.896Z,18.76
2017-01-20T14:20:08.755Z,18.88
2017-01-20T14:21:17.819Z,18.78
2017-01-20T14:22:26.492Z,18.76
2017-01-20T14:23:35.957Z,18.8
2017-01-20T14:24:45.811Z,18.78
2017-01-20T14:25:54.504Z,18.82
2017-01-20T14:27:03.605Z,18.81
2017-01-20T14:28:12.305Z,18.81
2017-01-20T14:29:22.152Z,18.76
2017-01-20T14:30:31.226Z,18.81
2017-01-20T14:31:40.312Z,18.76
2017-01-20T14:32:49.028Z,18.87
2017-01-20T14:33:58.263Z,18.78
2017-01-20T14:35:07.337Z,18.75
2017-01-20T14:36:16.042Z,18.73
2017-01-20T14:37:25.136Z,18.76
2017-01-20T14:38:34.214Z,18.76
2017-01-20T14:39:43.245Z,18.76
2017-01-20T14:40:52.721Z,18.84
2017-01-20T14:42:02.193Z,18.73
2017-01-20T14:43:10.867Z,18.82
2017-01-20T14:44:20.364Z,18.81
2017-01-20T14:45:29.587Z,18.78
2017-01-20T14:46:39.053Z,18.78
2017-01-20T14:47:48.154Z,18.73
2017-01-20T14:48:57.242Z,18.8
2017-01-20T14:50:06.328Z,18.73
2017-01-20T14:51:15.813Z,18.78
2017-01-20T14:52:24.909Z,18.66
2017-01-20T14:53:34.371Z,18.72
2017-01-20T14:54:43.835Z,18.82